Merrittstown, Pennsylvania
Current Conditions -  °F | °C
As of 1:53 AM on Saturday 20 Dec 2014 (Local Time) from KMGW Reporting Station
Overcast Overcast  
Wind Chill: 29°   Ceiling: 2300
Heat Index: 29°   Visibility: 10mi
Dew Point: 18°   Wind: 0mph
Humidity: 64%   Direction: NA
Pressure: 30.24"   Gusts: NA
Location:  39.97°N, 79.88°W
Report Text: KMGW 200653Z AUTO 00000KT 10SM OVC023 M02/M08 A3024 RMK AO2 SLP253 T10171078 TSNO
Loading
Personal Weather Stations






























Interactive Weather Map New forecast layout! Learn more

10-Day Weather Forecast

Advertisements
Track Severe Weather on mobile